createdAt,value
2023-04-23T00:00:36.543Z,97446.34
2023-04-23T00:03:14.623Z,97457.97
2023-04-23T00:05:42.753Z,97455.28
2023-04-23T00:08:10.615Z,97454.13
2023-04-23T00:10:39.610Z,97463.75
2023-04-23T00:13:06.426Z,97447.09
2023-04-23T00:15:33.315Z,97440.16
2023-04-23T00:18:01.687Z,97433.19
2023-04-23T00:20:28.284Z,97431.66
2023-04-23T00:22:54.813Z,97435.88
2023-04-23T00:25:23.489Z,97430.47
2023-04-23T00:27:50.018Z,97436.28
2023-04-23T00:30:18.771Z,97444.00
2023-04-23T00:32:47.418Z,97445.53
2023-04-23T00:35:13.998Z,97429.34
2023-04-23T00:37:40.795Z,97444.00
2023-04-23T00:40:08.276Z,97450.22
2023-04-23T00:42:35.517Z,97448.66
2023-04-23T00:45:02.400Z,97451.75
2023-04-23T00:47:32.133Z,97451.38
2023-04-23T00:49:59.870Z,97449.44
2023-04-23T00:52:26.567Z,97447.13
2023-04-23T00:54:53.252Z,97460.22
2023-04-23T00:57:19.923Z,97457.16
2023-04-23T00:59:46.834Z,97447.09
2023-04-23T01:02:18.738Z,97451.75
2023-04-23T01:04:45.459Z,97447.09
2023-04-23T01:07:12.891Z,97445.53
2023-04-23T01:09:42.227Z,97441.69
2023-04-23T01:12:10.324Z,97451.69
2023-04-23T01:14:38.347Z,97450.91
2023-04-23T01:17:07.763Z,97450.91
2023-04-23T01:19:34.896Z,97454.41
2023-04-23T01:22:02.633Z,97449.31
2023-04-23T01:24:33.374Z,97446.22
2023-04-23T01:26:59.953Z,97443.13
2023-04-23T01:29:28.884Z,97450.84
2023-04-23T01:31:56.483Z,97447.75
2023-04-23T01:34:23.431Z,97450.47
2023-04-23T01:36:52.134Z,97451.63
2023-04-23T01:39:18.887Z,97448.50
2023-04-23T01:41:46.254Z,97450.00
2023-04-23T01:44:12.814Z,97446.56
2023-04-23T01:46:41.160Z,97442.25
2023-04-23T01:49:08.638Z,97450.75
2023-04-23T01:51:38.694Z,97444.97
2023-04-23T01:54:07.445Z,97439.94
2023-04-23T01:56:35.720Z,97436.03
2023-04-23T01:59:02.566Z,97432.94
2023-04-23T02:01:58.247Z,97431.81
2023-04-23T02:04:25.560Z,97426.00
2023-04-23T02:06:52.496Z,97425.22
2023-04-23T02:09:20.937Z,97429.03
2023-04-23T02:11:47.405Z,97432.13
2023-04-23T02:14:14.247Z,97437.53
2023-04-23T02:16:42.759Z,97432.13
2023-04-23T02:19:09.473Z,97428.28
2023-04-23T02:21:35.949Z,97429.00
2023-04-23T02:24:15.313Z,97432.13
2023-04-23T02:26:41.761Z,97433.69
2023-04-23T02:29:08.480Z,97436.00
2023-04-23T02:31:36.763Z,97432.88
2023-04-23T02:34:03.623Z,97432.09
2023-04-23T02:36:32.395Z,97435.97
2023-04-23T02:39:00.638Z,97425.50
2023-04-23T02:41:27.159Z,97425.16
2023-04-23T02:43:53.652Z,97421.31
2023-04-23T02:46:26.725Z,97425.16
2023-04-23T02:48:53.245Z,97427.44
2023-04-23T02:51:19.739Z,97421.66
2023-04-23T02:53:46.527Z,97421.66
2023-04-23T02:56:14.898Z,97426.69
2023-04-23T02:58:41.439Z,97425.16
2023-04-23T03:01:10.058Z,97434.81
2023-04-23T03:03:37.192Z,97436.72
2023-04-23T03:06:06.920Z,97430.56
2023-04-23T03:08:35.175Z,97429.75
2023-04-23T03:11:01.721Z,97432.09
2023-04-23T03:13:28.299Z,97428.22
2023-04-23T03:15:55.683Z,97417.78
2023-04-23T03:18:22.300Z,97422.81
2023-04-23T03:20:49.019Z,97430.50
2023-04-23T03:23:17.304Z,97419.69
2023-04-23T03:25:43.804Z,97422.75
2023-04-23T03:28:10.515Z,97419.66
2023-04-23T03:30:39.527Z,97405.00
2023-04-23T03:33:06.053Z,97408.47
2023-04-23T03:35:32.817Z,97410.75
2023-04-23T03:38:01.526Z,97403.81
2023-04-23T03:40:28.004Z,97410.03
2023-04-23T03:42:54.547Z,97405.34
2023-04-23T03:45:23.280Z,97415.38
2023-04-23T03:47:49.816Z,97415.81
2023-04-23T03:50:17.523Z,97410.38
2023-04-23T03:52:46.671Z,97415.78
2023-04-23T03:55:13.203Z,97416.91
2023-04-23T03:57:39.720Z,97414.22
2023-04-23T04:00:08.466Z,97413.03
2023-04-23T04:02:35.421Z,97406.09
2023-04-23T04:05:02.126Z,97405.72
2023-04-23T04:07:31.103Z,97411.88
2023-04-23T04:09:57.633Z,97418.13
2023-04-23T04:12:25.806Z,97418.50
2023-04-23T04:14:54.516Z,97421.97
2023-04-23T04:17:21.126Z,97418.50
2023-04-23T04:19:48.885Z,97415.81
2023-04-23T04:22:21.348Z,97407.66
2023-04-23T04:24:52.112Z,97406.50
2023-04-23T04:27:18.754Z,97409.56
2023-04-23T04:29:45.399Z,97403.00
2023-04-23T04:32:13.720Z,97397.97
2023-04-23T04:34:43.183Z,97404.50
2023-04-23T04:37:12.677Z,97402.59
2023-04-23T04:39:39.229Z,97398.34
2023-04-23T04:42:07.241Z,97397.97
2023-04-23T04:44:39.353Z,97407.63
2023-04-23T04:47:09.866Z,97406.47
2023-04-23T04:49:37.239Z,97397.63
2023-04-23T04:52:05.477Z,97408.41
2023-04-23T04:54:31.956Z,97406.91
2023-04-23T04:56:58.763Z,97408.03
2023-04-23T04:59:27.480Z,97405.34
2023-04-23T05:01:54.651Z,97400.31
2023-04-23T05:04:21.213Z,97404.97
2023-04-23T05:06:51.492Z,97398.78
2023-04-23T05:09:18.004Z,97405.72
2023-04-23T05:11:44.580Z,97411.13
2023-04-23T05:14:13.331Z,97410.38
2023-04-23T05:16:40.080Z,97406.53
2023-04-23T05:19:06.579Z,97405.72
2023-04-23T05:21:35.135Z,97408.06
2023-04-23T05:24:01.649Z,97411.91
2023-04-23T05:26:30.414Z,97401.13
2023-04-23T05:29:01.396Z,97397.25
2023-04-23T05:31:29.450Z,97386.44
2023-04-23T05:33:56.269Z,97400.34
2023-04-23T05:36:22.969Z,97397.28
2023-04-23T05:38:49.767Z,97395.34
2023-04-23T05:41:16.380Z,97388.78
2023-04-23T05:43:45.432Z,97391.91
2023-04-23T05:46:11.949Z,97396.94
2023-04-23T05:48:40.780Z,97388.44
2023-04-23T05:51:14.514Z,97388.06
2023-04-23T05:53:42.967Z,97393.47
2023-04-23T05:56:09.561Z,97400.03
2023-04-23T05:58:36.122Z,97386.19
2023-04-23T06:01:03.023Z,97382.34
2023-04-23T06:03:29.746Z,97382.00
2023-04-23T06:06:02.997Z,97372.75
2023-04-23T06:08:29.530Z,97372.06
2023-04-23T06:10:56.269Z,97380.66
2023-04-23T06:13:22.914Z,97379.50
2023-04-23T06:15:49.396Z,97372.91
2023-04-23T06:18:17.951Z,97357.44
2023-04-23T06:20:45.138Z,97363.63
2023-04-23T06:23:12.953Z,97358.22
2023-04-23T06:25:39.423Z,97355.91
2023-04-23T06:28:10.826Z,97352.03
2023-04-23T06:30:37.581Z,97341.59
2023-04-23T06:33:04.129Z,97338.47
2023-04-23T06:35:31.361Z,97347.34
2023-04-23T06:37:57.849Z,97350.44
2023-04-23T06:40:24.312Z,97343.84
2023-04-23T06:42:55.446Z,97339.09
2023-04-23T06:45:22.004Z,97332.63
2023-04-23T06:47:49.881Z,97320.44
2023-04-23T06:50:21.796Z,97317.38
2023-04-23T06:52:48.378Z,97324.13
2023-04-23T06:55:14.937Z,97314.88
2023-04-23T06:57:43.179Z,97317.38
2023-04-23T07:00:13.501Z,97315.44
2023-04-23T07:02:40.381Z,97319.91
2023-04-23T07:05:07.233Z,97307.13
2023-04-23T07:07:36.612Z,97312.09
2023-04-23T07:12:56.120Z,97305.53
2023-04-23T07:15:26.690Z,97309.91
2023-04-23T07:17:53.247Z,97308.41
2023-04-23T07:20:19.888Z,97303.53
2023-04-23T07:22:47.196Z,97300.44
2023-04-23T07:25:13.822Z,97294.00
2023-04-23T07:27:44.795Z,97301.41
2023-04-23T07:30:11.782Z,97298.13
2023-04-23T07:32:38.431Z,97301.28
2023-04-23T07:35:07.174Z,97302.19
2023-04-23T07:37:33.724Z,97296.91
2023-04-23T07:40:02.539Z,97294.44
2023-04-23T07:42:29.234Z,97295.03
2023-04-23T07:44:55.755Z,97285.59
2023-04-23T07:47:22.302Z,97281.41
2023-04-23T07:49:48.751Z,97284.84
2023-04-23T07:52:17.642Z,97283.16
2023-04-23T07:54:44.923Z,97283.09
2023-04-23T07:57:14.388Z,97282.97
2023-04-23T07:59:41.306Z,97282.66
2023-04-23T08:02:08.765Z,97286.00
2023-04-23T08:04:46.097Z,97273.50
2023-04-23T08:07:13.080Z,97268.22
2023-04-23T08:09:40.510Z,97261.28
2023-04-23T08:12:08.821Z,97257.25
2023-04-23T08:14:35.402Z,97274.47
2023-04-23T08:17:02.149Z,97273.25
2023-04-23T08:19:33.612Z,97264.69
2023-04-23T08:22:00.262Z,97270.41
2023-04-23T08:24:27.314Z,97264.56
2023-04-23T08:26:55.567Z,97260.13
2023-04-23T08:29:25.789Z,97251.63
2023-04-23T08:31:52.751Z,97258.69
2023-04-23T08:34:19.415Z,97251.09
2023-04-23T08:36:46.545Z,97249.81
2023-04-23T08:39:13.020Z,97249.81
2023-04-23T08:41:47.454Z,97235.66
2023-04-23T08:44:19.298Z,97236.78
2023-04-23T08:46:58.243Z,97230.63
2023-04-23T08:49:29.910Z,97231.69
2023-04-23T08:52:05.717Z,97239.28
2023-04-23T08:54:32.213Z,97234.97
2023-04-23T08:56:59.367Z,97225.66
2023-04-23T08:59:29.322Z,97225.66
2023-04-23T09:02:00.312Z,97218.38
2023-04-23T09:04:35.848Z,97224.78
2023-04-23T09:07:02.933Z,97212.28
2023-04-23T09:09:32.080Z,97206.78
2023-04-23T09:12:00.559Z,97206.03
2023-04-23T09:14:27.147Z,97202.97
2023-04-23T09:16:54.044Z,97206.81
2023-04-23T09:19:20.969Z,97201.09
2023-04-23T09:21:50.219Z,97191.06
2023-04-23T09:24:17.908Z,97197.88
2023-04-23T09:26:51.579Z,97194.16
2023-04-23T09:29:19.952Z,97183.00
2023-04-23T09:31:59.106Z,97176.19
2023-04-23T09:34:25.808Z,97173.56
2023-04-23T09:36:53.671Z,97173.19
2023-04-23T09:39:28.521Z,97172.41
2023-04-23T09:41:55.093Z,97169.97
2023-04-23T09:44:23.073Z,97165.00
2023-04-23T09:46:51.829Z,97157.16
2023-04-23T09:49:18.398Z,97145.72
2023-04-23T09:51:47.827Z,97151.84
2023-04-23T09:54:23.303Z,97141.03
2023-04-23T09:56:58.876Z,97144.84
2023-04-23T10:02:03.005Z,97147.13
2023-04-23T10:04:32.064Z,97135.59
2023-04-23T10:07:17.217Z,97126.06
2023-04-23T10:09:47.126Z,97143.88
2023-04-23T10:14:50.666Z,97121.19
2023-04-23T10:17:17.867Z,97116.16
2023-04-23T10:19:45.087Z,97115.25
2023-04-23T10:22:19.590Z,97105.66
2023-04-23T10:24:49.555Z,97112.53
2023-04-23T10:27:30.755Z,97108.81
2023-04-23T10:30:09.770Z,97097.78
2023-04-23T10:32:37.778Z,97117.25
2023-04-23T10:35:07.916Z,97101.72
2023-04-23T10:37:36.144Z,97096.66
2023-04-23T10:40:30.685Z,97092.22
2023-04-23T10:43:03.312Z,97083.13
2023-04-23T10:45:30.983Z,97093.81
2023-04-23T10:47:58.732Z,97083.66
2023-04-23T10:50:32.221Z,97085.31
2023-04-23T10:52:59.249Z,97069.81
2023-04-23T10:55:29.016Z,97062.88
2023-04-23T10:58:03.136Z,97066.00
2023-04-23T11:00:41.938Z,97059.84
2023-04-23T11:03:38.782Z,97061.22
2023-04-23T11:06:08.655Z,97052.25
2023-04-23T11:08:36.078Z,97052.63
2023-04-23T11:11:11.126Z,97054.47
2023-04-23T11:13:51.411Z,97042.31
2023-04-23T11:16:22.204Z,97036.22
2023-04-23T11:19:12.352Z,97036.22
2023-04-23T11:22:09.309Z,97033.03
2023-04-23T11:24:42.776Z,97031.34
2023-04-23T11:27:12.656Z,97025.78
2023-04-23T11:29:48.678Z,97024.78
2023-04-23T11:32:17.414Z,97026.19
2023-04-23T11:34:58.782Z,97016.75
2023-04-23T11:37:26.194Z,96998.78
2023-04-23T11:39:52.714Z,97005.94
2023-04-23T11:42:23.821Z,97007.91
2023-04-23T11:44:50.337Z,96992.56
2023-04-23T11:47:18.477Z,97000.03
2023-04-23T11:49:47.042Z,96977.66
2023-04-23T11:52:14.518Z,96983.00
2023-04-23T11:54:41.804Z,96966.03
2023-04-23T11:57:08.649Z,96962.53
2023-04-23T11:59:35.291Z,96964.13
2023-04-23T12:02:01.872Z,96955.03
2023-04-23T12:04:30.847Z,96945.41
2023-04-23T12:06:59.064Z,96939.22
2023-04-23T12:09:27.893Z,96944.59
2023-04-23T12:11:58.793Z,96946.16
2023-04-23T12:14:30.809Z,96923.03
2023-04-23T12:16:58.707Z,96931.75
2023-04-23T12:19:35.830Z,96914.22
2023-04-23T12:22:03.921Z,96915.41
2023-04-23T12:24:45.421Z,96903.94
2023-04-23T12:27:15.901Z,96898.00
2023-04-23T12:29:42.899Z,96904.09
2023-04-23T12:32:13.258Z,96908.59
2023-04-23T12:34:55.798Z,96907.03
2023-04-23T12:37:28.769Z,96902.91
2023-04-23T12:40:00.388Z,96893.53
2023-04-23T12:42:26.920Z,96889.53
2023-04-23T12:44:57.347Z,96891.84
2023-04-23T12:47:24.009Z,96894.66
2023-04-23T12:49:53.743Z,96890.41
2023-04-23T12:52:24.736Z,96885.00
2023-04-23T12:54:56.209Z,96876.88
2023-04-23T12:57:24.564Z,96870.66
2023-04-23T12:59:51.372Z,96873.75
2023-04-23T13:02:21.449Z,96869.44
2023-04-23T13:05:01.180Z,96866.16
2023-04-23T13:07:28.072Z,96856.22
2023-04-23T13:09:54.520Z,96853.78
2023-04-23T13:12:20.997Z,96843.81
2023-04-23T13:14:47.468Z,96863.25
2023-04-23T13:17:17.389Z,96846.72
2023-04-23T13:19:45.056Z,96844.47
2023-04-23T13:22:11.581Z,96849.03
2023-04-23T13:24:38.071Z,96831.78
2023-04-23T13:27:06.389Z,96836.38
2023-04-23T13:29:33.596Z,96834.94
2023-04-23T13:32:00.950Z,96835.41
2023-04-23T13:34:27.643Z,96831.06
2023-04-23T13:36:54.233Z,96816.31
2023-04-23T13:39:21.516Z,96809.59
2023-04-23T13:42:09.116Z,96799.66
2023-04-23T13:44:36.628Z,96802.34
2023-04-23T13:47:07.759Z,96797.31
2023-04-23T13:49:34.346Z,96801.59
2023-04-23T13:52:04.451Z,96801.53
2023-04-23T13:54:32.750Z,96797.53
2023-04-23T13:56:59.323Z,96795.91
2023-04-23T13:59:26.191Z,96801.91
2023-04-23T14:01:54.499Z,96799.03
2023-04-23T14:04:24.139Z,96810.34
2023-04-23T14:06:50.973Z,96817.13
2023-04-23T14:09:19.287Z,96811.53
2023-04-23T14:11:49.570Z,96825.28
2023-04-23T14:14:16.730Z,96811.44
2023-04-23T14:16:43.743Z,96805.81
2023-04-23T14:19:10.347Z,96801.81
2023-04-23T14:21:37.403Z,96809.16
2023-04-23T14:24:25.233Z,96809.47
2023-04-23T14:26:53.649Z,96804.00
2023-04-23T14:29:22.986Z,96803.50
2023-04-23T14:31:51.334Z,96804.84
2023-04-23T14:34:17.849Z,96813.16
2023-04-23T14:36:51.438Z,96810.09
2023-04-23T14:39:19.746Z,96819.28
2023-04-23T14:41:46.263Z,96816.25
2023-04-23T14:44:12.820Z,96816.41
2023-04-23T14:46:39.394Z,96806.97
2023-04-23T14:49:06.438Z,96813.84
2023-04-23T14:51:43.430Z,96803.69
2023-04-23T14:54:10.463Z,96814.56
2023-04-23T14:56:43.154Z,96813.34
2023-04-23T14:59:23.482Z,96813.34
2023-04-23T15:01:50.207Z,96812.28
2023-04-23T15:04:19.132Z,96821.56
2023-04-23T15:06:45.946Z,96815.34
2023-04-23T15:09:12.410Z,96813.06
2023-04-23T15:11:41.751Z,96817.47
2023-04-23T15:14:19.467Z,96806.19
2023-04-23T15:16:48.688Z,96818.09
2023-04-23T15:19:19.670Z,96816.72
2023-04-23T15:21:55.009Z,96807.28
2023-04-23T15:24:21.464Z,96819.28
2023-04-23T15:26:53.300Z,96826.44
2023-04-23T15:29:20.149Z,96840.56
2023-04-23T15:31:46.695Z,96847.38
2023-04-23T15:34:13.216Z,96851.00
2023-04-23T15:36:39.895Z,96852.63
2023-04-23T15:39:09.269Z,96843.16
2023-04-23T15:41:39.566Z,96828.63
2023-04-23T15:44:12.564Z,96826.63
2023-04-23T15:46:39.461Z,96839.66
2023-04-23T15:49:06.149Z,96847.50
2023-04-23T15:51:39.731Z,96846.66
2023-04-23T15:54:08.731Z,96843.59
2023-04-23T15:56:37.859Z,96843.00
2023-04-23T15:59:06.161Z,96842.78
2023-04-23T16:01:32.820Z,96839.84
2023-04-23T16:04:09.277Z,96848.94
2023-04-23T16:06:36.730Z,96848.47
2023-04-23T16:09:08.440Z,96850.56
2023-04-23T16:11:36.596Z,96847.06
2023-04-23T16:14:03.531Z,96843.09
2023-04-23T16:16:30.866Z,96852.84
2023-04-23T16:18:57.883Z,96845.28
2023-04-23T16:21:30.278Z,96853.03
2023-04-23T16:23:56.861Z,96847.13
2023-04-23T16:26:23.701Z,96853.03
2023-04-23T16:29:05.743Z,96838.28
2023-04-23T16:31:38.715Z,96838.91
2023-04-23T16:34:13.004Z,96838.59
2023-04-23T16:36:39.718Z,96847.06
2023-04-23T16:39:06.282Z,96840.94
2023-04-23T16:41:34.789Z,96838.22
2023-04-23T16:44:01.370Z,96834.84
2023-04-23T16:46:31.452Z,96842.97
2023-04-23T16:49:00.410Z,96846.28
2023-04-23T16:51:28.382Z,96844.97
2023-04-23T16:53:55.441Z,96848.25
2023-04-23T16:56:22.851Z,96853.50
2023-04-23T16:58:51.191Z,96853.31
2023-04-23T17:01:18.139Z,96858.13
2023-04-23T17:03:47.593Z,96861.41
2023-04-23T17:06:24.703Z,96872.56
2023-04-23T17:08:51.511Z,96878.25
2023-04-23T17:11:23.105Z,96896.06
2023-04-23T17:13:50.534Z,96948.38
2023-04-23T17:16:17.384Z,96945.66
2023-04-23T17:18:43.972Z,96942.06
2023-04-23T17:21:11.012Z,96958.38
2023-04-23T17:23:43.190Z,96962.72
2023-04-23T17:26:10.429Z,96956.44
2023-04-23T17:28:42.915Z,96965.63
2023-04-23T17:31:11.497Z,96977.16
2023-04-23T17:33:38.805Z,96977.81
2023-04-23T17:36:05.774Z,96982.66
2023-04-23T17:38:32.701Z,96986.25
2023-04-23T17:40:59.549Z,96985.84
2023-04-23T17:43:26.233Z,96996.94
2023-04-23T17:45:54.609Z,97001.13
2023-04-23T17:48:28.482Z,96999.84
2023-04-23T17:50:55.090Z,96998.47
2023-04-23T17:53:21.904Z,96996.81
2023-04-23T17:55:48.404Z,96998.13
2023-04-23T17:58:14.970Z,96993.63
2023-04-23T18:00:47.618Z,97003.03
2023-04-23T18:03:16.983Z,96998.59
2023-04-23T18:05:43.806Z,97006.06
2023-04-23T18:08:12.488Z,97017.44
2023-04-23T18:10:39.048Z,97020.22
2023-04-23T18:13:11.473Z,97034.34
2023-04-23T18:15:38.817Z,97039.81
2023-04-23T18:18:05.503Z,97033.66
2023-04-23T18:20:35.078Z,97027.88
2023-04-23T18:23:03.356Z,97030.28
2023-04-23T18:25:34.285Z,97034.16
2023-04-23T18:28:00.867Z,97038.88
2023-04-23T18:30:32.069Z,97031.13
2023-04-23T18:33:13.805Z,97033.44
2023-04-23T18:35:47.061Z,97034.25
2023-04-23T18:38:38.443Z,97041.22
2023-04-23T18:41:05.075Z,97032.81
2023-04-23T18:43:34.576Z,97037.47
2023-04-23T18:46:04.940Z,97038.94
2023-04-23T18:48:34.581Z,97035.09
2023-04-23T18:51:24.448Z,97063.13
2023-04-23T18:53:53.300Z,97066.38
2023-04-23T18:56:19.897Z,97071.03
2023-04-23T18:58:46.427Z,97066.38
2023-04-23T19:01:13.949Z,97074.91
2023-04-23T19:03:40.609Z,97073.34
2023-04-23T19:06:08.012Z,97076.47
2023-04-23T19:08:35.647Z,97072.22
2023-04-23T19:11:02.295Z,97075.81
2023-04-23T19:13:28.793Z,97077.78
2023-04-23T19:15:57.651Z,97065.75
2023-04-23T19:18:24.373Z,97084.31
2023-04-23T19:20:51.503Z,97079.38
2023-04-23T19:23:18.710Z,97073.56
2023-04-23T19:25:45.360Z,97077.09
2023-04-23T19:28:11.821Z,97078.31
2023-04-23T19:30:40.171Z,97074.41
2023-04-23T19:33:06.798Z,97067.84
2023-04-23T19:35:36.787Z,97070.16
2023-04-23T19:38:04.778Z,97075.94
2023-04-23T19:40:31.303Z,97081.38
2023-04-23T19:42:57.856Z,97092.22
2023-04-23T19:45:24.865Z,97086.78
2023-04-23T19:47:51.717Z,97091.84
2023-04-23T19:50:19.796Z,97094.25
2023-04-23T19:52:46.560Z,97093.50
2023-04-23T19:55:13.056Z,97086.16
2023-04-23T19:57:39.579Z,97093.84
2023-04-23T20:00:07.162Z,97096.16
2023-04-23T20:02:35.138Z,97107.81
2023-04-23T20:05:03.154Z,97098.16
2023-04-23T20:07:30.064Z,97104.75
2023-04-23T20:09:56.530Z,97111.00
2023-04-23T20:12:24.431Z,97106.38
2023-04-23T20:14:51.432Z,97109.56
2023-04-23T20:17:17.935Z,97111.50
2023-04-23T20:19:45.028Z,97108.84
2023-04-23T20:22:12.041Z,97109.16
2023-04-23T20:24:42.788Z,97114.97
2023-04-23T20:27:09.262Z,97113.41
2023-04-23T20:29:35.922Z,97113.00
2023-04-23T20:32:02.476Z,97104.88
2023-04-23T20:34:29.006Z,97107.66
2023-04-23T20:37:00.664Z,97104.25
2023-04-23T20:39:27.235Z,97098.09
2023-04-23T20:41:54.910Z,97101.13
2023-04-23T20:44:24.848Z,97108.41
2023-04-23T20:46:52.054Z,97121.94
2023-04-23T20:49:21.440Z,97128.91
2023-04-23T20:51:49.701Z,97126.56
2023-04-23T20:54:16.423Z,97125.00
2023-04-23T20:56:43.255Z,97114.94
2023-04-23T20:59:09.867Z,97118.84
2023-04-23T21:01:37.532Z,97124.66
2023-04-23T21:04:04.500Z,97123.91
2023-04-23T21:06:35.746Z,97128.50
2023-04-23T21:09:02.215Z,97128.16
2023-04-23T21:11:29.211Z,97119.00
2023-04-23T21:13:56.247Z,97125.94
2023-04-23T21:16:24.480Z,97122.47
2023-04-23T21:18:51.287Z,97124.09
2023-04-23T21:21:18.153Z,97118.28
2023-04-23T21:23:44.649Z,97111.69
2023-04-23T21:26:11.522Z,97104.75
2023-04-23T21:28:45.956Z,97102.84
2023-04-23T21:31:17.669Z,97103.94
2023-04-23T21:33:44.222Z,97103.91
2023-04-23T21:36:12.543Z,97101.59
2023-04-23T21:38:41.058Z,97099.69
2023-04-23T21:41:07.679Z,97096.63
2023-04-23T21:43:37.327Z,97095.81
2023-04-23T21:46:03.856Z,97099.69
2023-04-23T21:48:34.369Z,97093.50
2023-04-23T21:51:01.039Z,97091.16
2023-04-23T21:53:27.499Z,97082.97
2023-04-23T21:55:53.950Z,97088.78
2023-04-23T21:58:20.446Z,97088.75
2023-04-23T22:00:50.609Z,97084.88
2023-04-23T22:03:32.507Z,97086.47
2023-04-23T22:06:07.448Z,97081.06
2023-04-23T22:08:34.029Z,97078.75
2023-04-23T22:11:02.825Z,97078.84
2023-04-23T22:13:29.590Z,97074.63
2023-04-23T22:15:57.466Z,97078.56
2023-04-23T22:18:24.230Z,97079.38
2023-04-23T22:20:59.617Z,97083.66
2023-04-23T22:23:26.116Z,97076.72
2023-04-23T22:25:52.665Z,97079.81
2023-04-23T22:28:25.457Z,97073.66
2023-04-23T22:30:52.207Z,97065.16
2023-04-23T22:33:18.817Z,97065.97
2023-04-23T22:35:45.874Z,97061.31
2023-04-23T22:38:18.573Z,97046.66
2023-04-23T22:40:45.078Z,97044.72
2023-04-23T22:43:12.831Z,97048.22
2023-04-23T22:45:39.406Z,97047.41
2023-04-23T22:48:05.979Z,97049.31
2023-04-23T22:50:32.733Z,97050.09
2023-04-23T22:52:59.593Z,97044.69
2023-04-23T22:55:26.126Z,97036.16
2023-04-23T22:57:52.707Z,97041.16
2023-04-23T23:00:19.169Z,97031.91
2023-04-23T23:02:45.768Z,97038.91
2023-04-23T23:05:20.016Z,97039.66
2023-04-23T23:07:46.574Z,97035.84
2023-04-23T23:10:13.205Z,97032.34
2023-04-23T23:12:42.366Z,97032.69
2023-04-23T23:15:09.269Z,97026.13
2023-04-23T23:17:35.811Z,97023.03
2023-04-23T23:20:04.320Z,97036.16
2023-04-23T23:22:32.648Z,97031.09
2023-04-23T23:24:59.177Z,97026.44
2023-04-23T23:27:30.411Z,97027.97
2023-04-23T23:29:57.956Z,97026.81
2023-04-23T23:32:24.532Z,97018.31
2023-04-23T23:34:57.844Z,97020.22
2023-04-23T23:37:24.654Z,97016.34
2023-04-23T23:39:51.418Z,97021.78
2023-04-23T23:42:18.055Z,97013.66
2023-04-23T23:44:44.604Z,97018.66
2023-04-23T23:47:14.938Z,97017.09
2023-04-23T23:49:42.109Z,97020.16
2023-04-23T23:52:08.866Z,97013.19
2023-04-23T23:54:35.961Z,97017.84
2023-04-23T23:57:02.679Z,97017.06
2023-04-23T23:59:29.480Z,97014.00
